createdAt,value
2023-02-04T00:00:24.907Z,3.13
2023-02-04T00:02:51.574Z,2.58
2023-02-04T00:05:19.244Z,3.33
2023-02-04T00:07:46.183Z,3.15
2023-02-04T00:10:13.186Z,2.15
2023-02-04T00:12:39.727Z,2.78
2023-02-04T00:15:06.712Z,2.40
2023-02-04T00:17:35.543Z,3.17
2023-02-04T00:20:04.578Z,2.60
2023-02-04T00:22:33.526Z,3.33
2023-02-04T00:25:02.390Z,3.00
2023-02-04T00:27:28.983Z,2.72
2023-02-04T00:29:56.408Z,2.72
2023-02-04T00:32:27.775Z,2.67
2023-02-04T00:34:54.501Z,2.60
2023-02-04T00:37:21.235Z,3.92
2023-02-04T00:39:50.554Z,3.35
2023-02-04T00:42:17.369Z,2.13
2023-02-04T00:44:44.023Z,2.72
2023-02-04T00:47:10.559Z,2.90
2023-02-04T00:49:37.150Z,2.92
2023-02-04T00:52:03.849Z,2.83
2023-02-04T00:54:30.453Z,3.20
2023-02-04T00:56:57.016Z,2.85
2023-02-04T00:59:26.081Z,3.00
2023-02-04T01:01:57.393Z,2.38
2023-02-04T01:04:24.028Z,2.42
2023-02-04T01:06:50.737Z,2.90
2023-02-04T01:09:17.278Z,3.05
2023-02-04T01:11:43.810Z,2.60
2023-02-04T01:14:10.553Z,2.83
2023-02-04T01:16:37.169Z,3.17
2023-02-04T01:19:04.145Z,3.47
2023-02-04T01:21:31.448Z,3.95
2023-02-04T01:23:58.052Z,3.90
2023-02-04T01:26:27.227Z,3.97
2023-02-04T01:28:53.807Z,3.53
2023-02-04T01:31:20.494Z,3.08
2023-02-04T01:33:47.126Z,2.90
2023-02-04T01:36:13.711Z,3.67
2023-02-04T01:38:40.277Z,4.07
2023-02-04T01:41:07.306Z,4.55
2023-02-04T01:43:34.291Z,3.50
2023-02-04T01:46:02.613Z,3.42
2023-02-04T01:48:31.714Z,3.55
2023-02-04T01:51:15.065Z,3.85
2023-02-04T01:53:42.174Z,3.30
2023-02-04T01:56:20.525Z,3.30
2023-02-04T01:58:50.818Z,4.13
2023-02-04T02:01:41.903Z,5.43
2023-02-04T02:04:15.571Z,4.35
2023-02-04T02:06:58.701Z,3.47
2023-02-04T02:09:30.545Z,3.75
2023-02-04T02:12:01.872Z,3.58
2023-02-04T02:14:28.465Z,4.10
2023-02-04T02:16:55.047Z,3.08
2023-02-04T02:19:28.698Z,4.18
2023-02-04T02:22:16.947Z,4.22
2023-02-04T02:24:43.622Z,3.38
2023-02-04T02:27:11.947Z,4.32
2023-02-04T02:29:41.306Z,3.63
2023-02-04T02:32:09.580Z,4.13
2023-02-04T02:34:39.959Z,4.65
2023-02-04T02:37:09.093Z,5.05
2023-02-04T02:39:38.451Z,3.97
2023-02-04T02:42:05.165Z,4.68
2023-02-04T02:44:33.130Z,5.15
2023-02-04T02:47:00.394Z,4.00
2023-02-04T02:49:29.673Z,4.43
2023-02-04T02:51:56.245Z,3.95
2023-02-04T02:54:26.643Z,5.05
2023-02-04T02:56:54.364Z,3.78
2023-02-04T02:59:21.044Z,4.60
2023-02-04T03:01:55.732Z,3.78
2023-02-04T03:04:23.515Z,3.92
2023-02-04T03:06:51.876Z,4.05
2023-02-04T03:09:19.095Z,4.55
2023-02-04T03:11:45.715Z,4.07
2023-02-04T03:14:12.329Z,4.25
2023-02-04T03:16:40.520Z,4.30
2023-02-04T03:19:08.179Z,3.60
2023-02-04T03:21:35.906Z,3.55
2023-02-04T03:24:05.143Z,4.28
2023-02-04T03:26:31.838Z,4.13
2023-02-04T03:28:59.165Z,3.97
2023-02-04T03:31:25.851Z,4.03
2023-02-04T03:33:52.473Z,3.75
2023-02-04T03:36:19.991Z,4.53
2023-02-04T03:38:46.552Z,5.30
2023-02-04T03:41:13.085Z,4.68
2023-02-04T03:43:39.663Z,4.95
2023-02-04T03:46:06.338Z,4.78
2023-02-04T03:48:32.878Z,3.95
2023-02-04T03:50:59.597Z,4.82
2023-02-04T03:53:26.238Z,5.32
2023-02-04T03:55:52.832Z,4.50
2023-02-04T03:58:21.574Z,5.00
2023-02-04T04:00:50.874Z,4.70
2023-02-04T04:03:17.434Z,4.65
2023-02-04T04:05:44.006Z,4.95
2023-02-04T04:08:10.595Z,5.07
2023-02-04T04:10:37.212Z,4.60
2023-02-04T04:13:03.804Z,5.10
2023-02-04T04:15:31.850Z,5.50
2023-02-04T04:17:58.484Z,4.93
2023-02-04T04:20:25.634Z,5.53
2023-02-04T04:22:52.470Z,5.22
2023-02-04T04:25:19.260Z,4.85
2023-02-04T04:27:48.217Z,4.47
2023-02-04T04:30:14.929Z,4.50
2023-02-04T04:32:41.547Z,4.65
2023-02-04T04:35:08.614Z,5.88
2023-02-04T04:37:35.286Z,4.30
2023-02-04T04:40:08.983Z,4.13
2023-02-04T04:42:35.503Z,4.22
2023-02-04T04:45:02.112Z,4.32
2023-02-04T04:47:28.695Z,4.57
2023-02-04T04:49:55.250Z,5.10
2023-02-04T04:52:21.822Z,4.65
2023-02-04T04:54:48.464Z,4.63
2023-02-04T04:57:15.021Z,4.43
2023-02-04T04:59:41.558Z,4.70
2023-02-04T05:02:10.369Z,4.45
2023-02-04T05:04:37.000Z,4.82
2023-02-04T05:07:03.630Z,4.55
2023-02-04T05:09:34.785Z,4.90
2023-02-04T05:12:03.958Z,4.80
2023-02-04T05:14:35.487Z,4.70
2023-02-04T05:17:04.373Z,4.97
2023-02-04T05:19:33.554Z,5.10
2023-02-04T05:22:01.766Z,5.30
2023-02-04T05:24:28.690Z,5.28
2023-02-04T05:26:55.434Z,5.03
2023-02-04T05:29:24.553Z,5.00
2023-02-04T05:31:51.161Z,5.40
2023-02-04T05:34:17.911Z,5.38
2023-02-04T05:36:44.512Z,5.63
2023-02-04T05:39:11.151Z,6.63
2023-02-04T05:41:37.748Z,5.70
2023-02-04T05:44:04.418Z,5.30
2023-02-04T05:46:31.130Z,5.75
2023-02-04T05:48:57.683Z,5.00
2023-02-04T05:51:24.234Z,5.03
2023-02-04T05:53:50.822Z,5.72
2023-02-04T05:56:17.445Z,5.18
2023-02-04T05:58:43.976Z,4.43
2023-02-04T06:01:12.994Z,4.57
2023-02-04T06:03:39.619Z,5.28
2023-02-04T06:06:08.727Z,5.70
2023-02-04T06:08:35.378Z,5.45
2023-02-04T06:11:05.013Z,5.70
2023-02-04T06:13:31.588Z,6.13
2023-02-04T06:15:58.157Z,6.25
2023-02-04T06:18:24.816Z,6.38
2023-02-04T06:20:53.976Z,6.72
2023-02-04T06:23:20.574Z,7.07
2023-02-04T06:25:48.881Z,6.40
2023-02-04T06:28:15.499Z,6.82
2023-02-04T06:30:44.317Z,6.95
2023-02-04T06:33:11.015Z,7.00
2023-02-04T06:35:37.640Z,7.07
2023-02-04T06:38:04.253Z,8.50
2023-02-04T06:40:31.143Z,8.68
2023-02-04T06:43:00.184Z,8.00
2023-02-04T06:45:26.830Z,7.10
2023-02-04T06:47:53.397Z,7.47
2023-02-04T06:50:22.272Z,6.97
2023-02-04T06:52:48.920Z,7.22
2023-02-04T06:55:16.441Z,8.05
2023-02-04T06:57:43.090Z,7.25
2023-02-04T07:00:12.045Z,8.25
2023-02-04T07:02:39.904Z,7.88
2023-02-04T07:05:06.771Z,7.90
2023-02-04T07:07:35.716Z,8.65
2023-02-04T07:10:04.508Z,8.40
2023-02-04T07:12:31.109Z,7.93
2023-02-04T07:14:57.719Z,9.05
2023-02-04T07:17:24.284Z,8.65
2023-02-04T07:19:50.898Z,8.77
2023-02-04T07:22:17.467Z,8.27
2023-02-04T07:24:44.027Z,8.75
2023-02-04T07:27:10.612Z,8.60
2023-02-04T07:29:37.198Z,9.38
2023-02-04T07:32:03.840Z,8.70
2023-02-04T07:34:30.447Z,9.10
2023-02-04T07:36:57.100Z,9.52
2023-02-04T07:39:23.673Z,9.63
2023-02-04T07:41:50.315Z,9.50
2023-02-04T07:44:16.853Z,9.82
2023-02-04T07:46:43.498Z,9.15
2023-02-04T07:49:10.104Z,9.18
2023-02-04T07:51:36.806Z,9.80
2023-02-04T07:54:03.511Z,9.65
2023-02-04T07:56:30.106Z,9.80
2023-02-04T07:58:58.966Z,10.40
2023-02-04T08:01:25.566Z,10.00
2023-02-04T08:03:52.225Z,9.75
2023-02-04T08:06:19.083Z,10.32
2023-02-04T08:08:48.238Z,9.48
2023-02-04T08:11:14.776Z,10.13
2023-02-04T08:13:41.331Z,9.80
2023-02-04T08:16:08.031Z,9.95
2023-02-04T08:18:34.631Z,9.63
2023-02-04T08:21:01.664Z,9.15
2023-02-04T08:23:28.296Z,10.70
2023-02-04T08:25:54.832Z,10.57
2023-02-04T08:28:21.496Z,10.23
2023-02-04T08:30:48.368Z,9.95
2023-02-04T08:33:14.997Z,10.23
2023-02-04T08:35:41.536Z,10.75
2023-02-04T08:38:11.206Z,10.55
2023-02-04T08:40:37.886Z,9.60
2023-02-04T08:43:07.059Z,9.00
2023-02-04T08:45:33.689Z,10.40
2023-02-04T08:48:00.270Z,11.38
2023-02-04T08:50:28.767Z,9.93
2023-02-04T08:52:55.535Z,10.57
2023-02-04T08:55:22.132Z,10.35
2023-02-04T08:57:51.693Z,10.60
2023-02-04T09:00:18.899Z,9.65
2023-02-04T09:02:45.695Z,9.25
2023-02-04T09:05:12.391Z,9.70
2023-02-04T09:07:41.940Z,9.13
2023-02-04T09:10:08.777Z,9.68
2023-02-04T09:12:35.381Z,9.57
2023-02-04T09:15:05.423Z,9.43
2023-02-04T09:17:32.078Z,9.95
2023-02-04T09:19:58.852Z,9.73
2023-02-04T09:22:25.595Z,10.02
2023-02-04T09:24:52.194Z,11.05
2023-02-04T09:27:19.757Z,9.45
2023-02-04T09:29:46.342Z,9.52
2023-02-04T09:32:13.069Z,10.50
2023-02-04T09:34:40.047Z,9.75
2023-02-04T09:37:06.667Z,9.27
2023-02-04T09:39:33.232Z,9.60
2023-02-04T09:41:59.854Z,9.32
2023-02-04T09:44:31.322Z,10.05
2023-02-04T09:47:02.670Z,9.25
2023-02-04T09:49:32.639Z,9.25
2023-02-04T09:51:59.458Z,9.68
2023-02-04T09:54:26.180Z,8.77
2023-02-04T09:56:55.157Z,9.88
2023-02-04T09:59:23.656Z,9.43
2023-02-04T10:01:57.518Z,9.90
2023-02-04T10:04:24.409Z,7.93
2023-02-04T10:06:51.114Z,8.88
2023-02-04T10:09:18.360Z,9.65
2023-02-04T10:11:47.877Z,10.02
2023-02-04T10:14:19.606Z,9.40
2023-02-04T10:16:59.687Z,8.80
2023-02-04T10:19:28.648Z,9.18
2023-02-04T10:21:56.741Z,9.38
2023-02-04T10:24:30.338Z,9.25
2023-02-04T10:27:12.409Z,8.40
2023-02-04T10:29:40.424Z,7.72
2023-02-04T10:32:26.536Z,6.70
2023-02-04T10:34:59.018Z,5.68
2023-02-04T10:37:25.810Z,6.82
2023-02-04T10:39:52.667Z,6.55
2023-02-04T10:42:30.273Z,6.55
2023-02-04T10:44:57.225Z,5.65
2023-02-04T10:47:26.666Z,8.05
2023-02-04T10:50:06.250Z,6.60
2023-02-04T10:52:41.784Z,7.15
2023-02-04T10:55:14.295Z,6.90
2023-02-04T10:57:42.217Z,7.38
2023-02-04T11:00:19.766Z,7.57
2023-02-04T11:02:58.620Z,6.95
2023-02-04T11:05:30.642Z,7.13
2023-02-04T11:07:57.369Z,7.22
2023-02-04T11:10:28.657Z,6.20
2023-02-04T11:12:55.182Z,6.55
2023-02-04T11:15:42.231Z,5.28
2023-02-04T11:18:13.769Z,5.22
2023-02-04T11:20:41.173Z,5.63
2023-02-04T11:23:37.168Z,5.20
2023-02-04T11:26:09.962Z,6.07
2023-02-04T11:29:09.378Z,6.32
2023-02-04T11:31:52.016Z,6.07
2023-02-04T11:34:19.399Z,5.93
2023-02-04T11:37:01.548Z,6.68
2023-02-04T11:39:48.547Z,7.10
2023-02-04T11:42:19.811Z,6.88
2023-02-04T11:44:55.866Z,6.97
2023-02-04T11:47:25.041Z,8.10
2023-02-04T11:50:02.109Z,4.97
2023-02-04T11:52:28.753Z,4.00
2023-02-04T11:55:00.286Z,4.00
2023-02-04T11:57:27.848Z,4.25
2023-02-04T11:59:56.960Z,4.28
2023-02-04T12:02:27.908Z,3.75
2023-02-04T12:04:57.391Z,4.40
2023-02-04T12:07:28.473Z,4.78
2023-02-04T12:09:56.191Z,3.85
2023-02-04T12:12:28.686Z,4.07
2023-02-04T12:15:29.861Z,4.10
2023-02-04T12:18:12.892Z,3.33
2023-02-04T12:20:44.401Z,4.32
2023-02-04T12:23:10.973Z,4.28
2023-02-04T12:25:39.801Z,5.10
2023-02-04T12:28:08.962Z,4.28
2023-02-04T12:30:36.199Z,3.83
2023-02-04T12:33:02.818Z,3.60
2023-02-04T12:35:29.458Z,3.75
2023-02-04T12:37:56.404Z,4.30
2023-02-04T12:40:22.949Z,4.45
2023-02-04T12:42:49.510Z,4.25
2023-02-04T12:45:19.970Z,4.00
2023-02-04T12:47:46.788Z,4.35
2023-02-04T12:50:22.463Z,4.70
2023-02-04T12:53:07.244Z,4.80
2023-02-04T12:55:34.097Z,4.55
2023-02-04T12:58:00.881Z,3.83
2023-02-04T13:00:27.739Z,4.28
2023-02-04T13:02:59.097Z,4.82
2023-02-04T13:05:26.557Z,5.70
2023-02-04T13:07:53.404Z,4.20
2023-02-04T13:10:21.792Z,4.65
2023-02-04T13:12:48.612Z,4.75
2023-02-04T13:15:15.230Z,4.18
2023-02-04T13:17:42.167Z,4.07
2023-02-04T13:20:09.484Z,3.90
2023-02-04T13:22:36.051Z,3.90
2023-02-04T13:25:04.200Z,4.53
2023-02-04T13:27:33.347Z,4.55
2023-02-04T13:29:59.954Z,3.75
2023-02-04T13:32:26.806Z,4.47
2023-02-04T13:34:53.340Z,5.03
2023-02-04T13:37:22.113Z,4.20
2023-02-04T13:39:48.689Z,4.75
2023-02-04T13:42:15.308Z,5.20
2023-02-04T13:44:41.979Z,4.45
2023-02-04T13:47:08.545Z,4.32
2023-02-04T13:49:35.260Z,4.13
2023-02-04T13:52:01.889Z,4.20
2023-02-04T13:54:28.513Z,3.47
2023-02-04T13:56:57.573Z,4.22
2023-02-04T13:59:24.210Z,3.30
2023-02-04T14:01:50.819Z,3.83
2023-02-04T14:04:17.450Z,3.28
2023-02-04T14:06:44.048Z,4.07
2023-02-04T14:09:12.305Z,3.63
2023-02-04T14:11:39.353Z,2.70
2023-02-04T14:14:06.270Z,3.60
2023-02-04T14:16:32.912Z,2.30
2023-02-04T14:19:00.445Z,3.22
2023-02-04T14:21:27.215Z,3.38
2023-02-04T14:23:55.998Z,2.80
2023-02-04T14:26:24.795Z,2.45
2023-02-04T14:28:51.382Z,2.85
2023-02-04T14:31:18.808Z,2.25
2023-02-04T14:33:45.580Z,2.50
2023-02-04T14:36:12.388Z,1.85
2023-02-04T14:38:39.268Z,1.85
2023-02-04T14:41:05.881Z,2.08
2023-02-04T14:43:37.392Z,2.28
2023-02-04T14:46:05.546Z,1.80
2023-02-04T14:48:32.445Z,2.10
2023-02-04T14:50:59.044Z,2.95
2023-02-04T14:53:25.676Z,2.13
2023-02-04T14:55:52.256Z,2.72
2023-02-04T14:58:18.925Z,2.45
2023-02-04T15:00:45.498Z,2.03
2023-02-04T15:03:14.287Z,2.38
2023-02-04T15:05:43.449Z,2.10
2023-02-04T15:08:10.002Z,14.23
2023-02-04T15:10:39.125Z,3.92
2023-02-04T15:13:05.862Z,2.30
2023-02-04T15:15:32.539Z,2.95
2023-02-04T15:18:01.478Z,4.82
2023-02-04T15:20:30.621Z,2.60
2023-02-04T15:22:59.705Z,2.58
2023-02-04T15:25:27.248Z,2.75
2023-02-04T15:27:56.872Z,2.60
2023-02-04T15:30:26.694Z,2.67
2023-02-04T15:32:53.323Z,2.60
2023-02-04T15:35:21.932Z,2.50
2023-02-04T15:37:50.752Z,2.75
2023-02-04T15:40:17.714Z,3.65
2023-02-04T15:42:44.317Z,2.97
2023-02-04T15:45:10.913Z,3.10
2023-02-04T15:47:40.076Z,4.55
2023-02-04T15:50:09.029Z,3.92
2023-02-04T15:52:35.638Z,4.00
2023-02-04T15:55:06.997Z,4.45
2023-02-04T15:57:33.595Z,4.75
2023-02-04T16:00:00.195Z,4.53
2023-02-04T16:02:29.988Z,4.07
2023-02-04T16:04:56.745Z,4.93
2023-02-04T16:07:23.338Z,4.45
2023-02-04T16:09:49.958Z,5.03
2023-02-04T16:12:16.552Z,4.30
2023-02-04T16:14:43.147Z,4.40
2023-02-04T16:17:12.719Z,5.05
2023-02-04T16:19:39.291Z,4.63
2023-02-04T16:22:06.382Z,4.80
2023-02-04T16:24:33.617Z,3.97
2023-02-04T16:27:00.242Z,4.20
2023-02-04T16:29:26.956Z,4.82
2023-02-04T16:31:54.122Z,4.00
2023-02-04T16:34:20.801Z,4.03
2023-02-04T16:36:49.557Z,4.47
2023-02-04T16:39:18.857Z,4.68
2023-02-04T16:41:45.470Z,5.57
2023-02-04T16:44:12.324Z,5.55
2023-02-04T16:46:41.272Z,5.32
2023-02-04T16:49:08.003Z,6.30
2023-02-04T16:51:34.688Z,5.88
2023-02-04T16:54:01.315Z,6.22
2023-02-04T16:56:35.056Z,5.43
2023-02-04T16:59:04.936Z,5.78
2023-02-04T17:01:31.568Z,5.03
2023-02-04T17:03:58.443Z,4.82
2023-02-04T17:06:29.917Z,5.22
2023-02-04T17:08:56.862Z,5.10
2023-02-04T17:11:29.942Z,5.38
2023-02-04T17:14:00.853Z,5.18
2023-02-04T17:16:27.567Z,5.43
2023-02-04T17:18:57.448Z,5.78
2023-02-04T17:21:28.139Z,5.45
2023-02-04T17:23:56.131Z,7.00
2023-02-04T17:26:24.253Z,7.03
2023-02-04T17:28:53.192Z,6.25
2023-02-04T17:31:19.785Z,6.20
2023-02-04T17:33:47.336Z,7.40
2023-02-04T17:36:15.287Z,8.45
2023-02-04T17:38:41.972Z,7.75
2023-02-04T17:41:08.616Z,8.77
2023-02-04T17:43:37.240Z,7.78
2023-02-04T17:46:04.183Z,7.63
2023-02-04T17:48:31.961Z,7.30
2023-02-04T17:50:58.647Z,6.07
2023-02-04T17:53:27.440Z,5.63
2023-02-04T17:55:54.031Z,5.30
2023-02-04T17:58:27.084Z,5.80
2023-02-04T18:00:56.262Z,5.60
2023-02-04T18:03:26.586Z,5.55
2023-02-04T18:05:55.905Z,5.57
2023-02-04T18:08:27.158Z,5.50
2023-02-04T18:10:55.662Z,5.97
2023-02-04T18:13:23.470Z,6.20
2023-02-04T18:15:58.676Z,6.68
2023-02-04T18:18:35.939Z,7.38
2023-02-04T18:21:25.586Z,6.10
2023-02-04T18:24:08.765Z,6.93
2023-02-04T18:26:49.733Z,5.55
2023-02-04T18:29:23.806Z,18.58
2023-02-04T18:31:59.987Z,17.77
2023-02-04T18:34:41.545Z,12.25
2023-02-04T18:37:26.073Z,7.72
2023-02-04T18:40:02.482Z,6.28
2023-02-04T18:42:29.077Z,6.78
2023-02-04T18:44:56.894Z,7.45
2023-02-04T18:47:29.574Z,7.65
2023-02-04T18:49:56.378Z,7.00
2023-02-04T18:52:23.124Z,8.07
2023-02-04T18:54:54.327Z,7.05
2023-02-04T18:57:37.026Z,7.28
2023-02-04T19:00:09.583Z,7.30
2023-02-04T19:02:39.514Z,7.60
2023-02-04T19:05:42.614Z,6.82
2023-02-04T19:08:21.343Z,7.85
2023-02-04T19:10:49.235Z,8.25
2023-02-04T19:13:22.641Z,8.35
2023-02-04T19:16:22.550Z,8.00
2023-02-04T19:18:50.810Z,7.13
2023-02-04T19:21:22.606Z,8.50
2023-02-04T19:23:58.814Z,8.07
2023-02-04T19:26:47.270Z,8.18
2023-02-04T19:29:23.264Z,8.13
2023-02-04T19:31:52.634Z,7.97
2023-02-04T19:34:28.161Z,8.85
2023-02-04T19:36:55.551Z,8.25
2023-02-04T19:39:35.462Z,7.95
2023-02-04T19:42:17.146Z,8.52
2023-02-04T19:44:45.784Z,9.20
2023-02-04T19:47:35.347Z,8.63
2023-02-04T19:50:22.166Z,8.68
2023-02-04T19:52:55.222Z,9.32
2023-02-04T19:55:32.235Z,8.10
2023-02-04T19:58:20.579Z,7.53
2023-02-04T20:01:04.910Z,8.60
2023-02-04T20:03:38.888Z,7.75
2023-02-04T20:06:43.694Z,8.55
2023-02-04T20:09:19.706Z,8.88
2023-02-04T20:11:53.668Z,9.38
2023-02-04T20:14:22.048Z,9.50
2023-02-04T20:16:57.596Z,10.68
2023-02-04T20:19:35.899Z,10.70
2023-02-04T20:22:39.240Z,10.95
2023-02-04T20:25:35.578Z,10.23
2023-02-04T20:28:15.895Z,10.40
2023-02-04T20:30:45.475Z,9.32
2023-02-04T20:33:21.147Z,9.77
2023-02-04T20:36:10.624Z,10.27
2023-02-04T20:38:37.289Z,13.02
2023-02-04T20:41:18.749Z,10.93
2023-02-04T20:43:45.539Z,11.95
2023-02-04T20:46:23.055Z,11.50
2023-02-04T20:48:50.189Z,11.32
2023-02-04T20:51:23.586Z,11.50
2023-02-04T20:53:59.288Z,12.52
2023-02-04T20:56:33.623Z,10.95
2023-02-04T20:59:12.178Z,11.65
2023-02-04T21:01:45.970Z,12.65
2023-02-04T21:04:22.245Z,11.60
2023-02-04T21:06:55.556Z,12.20
2023-02-04T21:09:28.091Z,10.93
2023-02-04T21:12:00.971Z,11.05
2023-02-04T21:14:30.365Z,11.55
2023-02-04T21:16:57.026Z,12.05
2023-02-04T21:19:24.995Z,11.98
2023-02-04T21:21:52.296Z,11.57
2023-02-04T21:24:19.015Z,10.43
2023-02-04T21:26:45.627Z,12.57
2023-02-04T21:29:12.252Z,12.10
2023-02-04T21:31:41.415Z,11.85
2023-02-04T21:34:08.169Z,11.35
2023-02-04T21:36:34.801Z,11.15
2023-02-04T21:39:01.377Z,12.32
2023-02-04T21:41:28.303Z,11.90
2023-02-04T21:43:54.906Z,11.43
2023-02-04T21:46:21.581Z,12.00
2023-02-04T21:48:48.254Z,11.65
2023-02-04T21:51:17.480Z,13.50
2023-02-04T21:53:44.441Z,13.52
2023-02-04T21:56:11.505Z,13.35
2023-02-04T21:58:38.698Z,12.48
2023-02-04T22:01:07.859Z,12.32
2023-02-04T22:03:34.576Z,13.00
2023-02-04T22:06:05.915Z,12.38
2023-02-04T22:08:32.464Z,12.48
2023-02-04T22:10:59.087Z,12.45
2023-02-04T22:13:25.768Z,13.10
2023-02-04T22:15:52.492Z,13.52
2023-02-04T22:18:20.402Z,14.10
2023-02-04T22:20:47.007Z,13.38
2023-02-04T22:23:16.627Z,14.02
2023-02-04T22:25:43.267Z,14.07
2023-02-04T22:28:09.973Z,13.88
2023-02-04T22:30:37.589Z,13.32
2023-02-04T22:33:04.432Z,13.73
2023-02-04T22:35:34.986Z,13.07
2023-02-04T22:38:02.311Z,13.02
2023-02-04T22:40:28.937Z,12.23
2023-02-04T22:42:55.524Z,12.32
2023-02-04T22:45:22.100Z,12.40
2023-02-04T22:47:48.716Z,12.00
2023-02-04T22:50:15.469Z,12.18
2023-02-04T22:52:43.814Z,12.40
2023-02-04T22:55:13.135Z,12.13
2023-02-04T22:57:41.927Z,13.32
2023-02-04T23:00:09.322Z,12.57
2023-02-04T23:02:35.929Z,12.77
2023-02-04T23:05:03.192Z,12.15
2023-02-04T23:07:32.169Z,13.30
2023-02-04T23:09:58.743Z,13.00
2023-02-04T23:12:25.564Z,13.63
2023-02-04T23:14:52.161Z,13.38
2023-02-04T23:17:19.073Z,12.38
2023-02-04T23:19:46.086Z,13.35
2023-02-04T23:22:16.064Z,13.50
2023-02-04T23:24:45.171Z,13.65
2023-02-04T23:27:12.111Z,13.05
2023-02-04T23:29:42.336Z,13.60
2023-02-04T23:32:09.681Z,13.85
2023-02-04T23:34:36.716Z,14.95
2023-02-04T23:37:03.610Z,15.63
2023-02-04T23:39:30.721Z,15.80
2023-02-04T23:41:57.329Z,16.75
2023-02-04T23:44:24.103Z,16.17
2023-02-04T23:46:51.975Z,18.27
2023-02-04T23:49:18.578Z,18.40
2023-02-04T23:51:47.468Z,18.48
2023-02-04T23:54:14.268Z,20.08
2023-02-04T23:56:40.936Z,20.48
2023-02-04T23:59:08.302Z,19.45
